Time;durP1;ratioP1;P1;durP2;ratioP2;P2;SDS_P1;SDS_P2;PMS_P1;PMS_P2;Temp;Humidity;BMP_temperature;BMP_pressure;BME280_temperature;BME280_humidity;BME280_pressure;Samples;Min_cycle;Max_cycle;Signal;HPM_P1;HPM_P2
2023/08/07 00:00:21;;;;;;;7.45;4.18;;;13.80;99.90;;;;;;5038045;28;20076;-67
2023/08/07 00:02:47;;;;;;;6.13;4.22;;;13.80;99.90;;;;;;5047321;28;20034;-68
2023/08/07 00:05:12;;;;;;;5.53;4.25;;;13.80;99.90;;;;;;5038314;28;20025;-69
2023/08/07 00:07:38;;;;;;;6.85;4.05;;;13.80;99.90;;;;;;5035263;28;20136;-67
2023/08/07 00:10:04;;;;;;;9.45;4.35;;;13.80;99.90;;;;;;5031356;28;20037;-68
2023/08/07 00:12:29;;;;;;;6.28;4.10;;;13.90;99.90;;;;;;5046655;28;20107;-67
2023/08/07 00:14:55;;;;;;;7.55;4.82;;;13.90;99.90;;;;;;5038706;28;20140;-68
2023/08/07 00:17:20;;;;;;;9.90;4.72;;;13.90;99.90;;;;;;5036787;28;20673;-67
2023/08/07 00:19:46;;;;;;;8.82;4.07;;;14.00;99.90;;;;;;5041166;28;20044;-69
2023/08/07 00:22:12;;;;;;;8.13;4.85;;;13.90;99.90;;;;;;5035793;28;20042;-68
2023/08/07 00:24:37;;;;;;;6.60;4.22;;;14.00;99.90;;;;;;5029573;28;20071;-68
2023/08/07 00:27:03;;;;;;;8.55;4.53;;;14.00;99.90;;;;;;5013050;28;20038;-68
2023/08/07 00:29:29;;;;;;;7.25;4.10;;;14.10;99.90;;;;;;5036730;28;20120;-67
2023/08/07 00:31:54;;;;;;;8.00;4.13;;;14.10;99.90;;;;;;5033772;28;20037;-67
2023/08/07 00:34:20;;;;;;;6.10;4.22;;;14.10;99.90;;;;;;5033911;28;20131;-68
2023/08/07 00:36:45;;;;;;;7.28;4.43;;;14.10;99.90;;;;;;5041607;28;20045;-68
2023/08/07 00:39:11;;;;;;;7.93;4.65;;;14.10;99.90;;;;;;5031113;28;20065;-67
2023/08/07 00:41:36;;;;;;;9.32;4.43;;;14.10;99.90;;;;;;5030102;28;20033;-68
2023/08/07 00:44:02;;;;;;;10.35;4.38;;;14.10;99.90;;;;;;5031368;28;20037;-67
2023/08/07 00:46:29;;;;;;;6.93;3.90;;;14.20;99.90;;;;;;5015543;28;20072;-68
2023/08/07 00:48:55;;;;;;;6.35;3.63;;;14.20;99.90;;;;;;5051364;28;20041;-67
2023/08/07 00:51:22;;;;;;;5.68;3.58;;;14.20;99.90;;;;;;5038977;28;20132;-68
2023/08/07 00:53:48;;;;;;;5.00;3.22;;;14.20;99.90;;;;;;5034974;28;20064;-68
2023/08/07 00:56:15;;;;;;;7.25;3.33;;;14.20;99.90;;;;;;5036353;28;20154;-68
2023/08/07 00:58:41;;;;;;;9.13;3.50;;;14.10;99.90;;;;;;5044054;28;20044;-68
2023/08/07 01:01:07;;;;;;;8.57;3.90;;;14.10;99.90;;;;;;5039505;28;20091;-67
2023/08/07 01:03:32;;;;;;;6.13;3.33;;;14.10;99.90;;;;;;5039024;28;20429;-68
2023/08/07 01:05:58;;;;;;;6.43;3.58;;;14.10;99.90;;;;;;5037937;28;20043;-70
2023/08/07 01:08:25;;;;;;;7.68;3.97;;;14.10;99.90;;;;;;5027433;28;20063;-67
2023/08/07 01:11:09;;;;;;;5.50;3.60;;;14.00;99.90;;;;;;5031682;28;20071;-68
2023/08/07 01:13:41;;;;;;;7.38;3.30;;;14.00;99.90;;;;;;5042507;28;20385;-68
2023/08/07 01:16:21;;;;;;;6.03;3.72;;;14.00;99.90;;;;;;5030251;28;20506;-68
2023/08/07 01:18:50;;;;;;;;;;;14.00;99.90;;;;;;5029474;28;20136;-68
2023/08/07 01:21:20;;;;;;;6.80;3.80;;;14.00;99.90;;;;;;5055827;28;20030;-68
2023/08/07 01:23:47;;;;;;;5.80;3.50;;;14.00;99.90;;;;;;5031211;28;20045;-68
2023/08/07 01:26:13;;;;;;;8.60;3.80;;;14.00;99.90;;;;;;5030979;28;20041;-68
2023/08/07 01:28:46;;;;;;;5.30;3.35;;;14.00;99.90;;;;;;5033372;28;20030;-67
2023/08/07 01:31:15;;;;;;;5.10;3.30;;;14.10;99.90;;;;;;5041954;28;20120;-68
2023/08/07 01:33:56;;;;;;;6.03;3.30;;;14.10;99.90;;;;;;5031609;28;20033;-68
2023/08/07 01:36:24;;;;;;;5.72;3.30;;;14.10;99.90;;;;;;5045706;28;20041;-68
2023/08/07 01:38:52;;;;;;;6.22;3.55;;;14.10;99.90;;;;;;5035308;28;20045;-69
2023/08/07 01:41:19;;;;;;;7.70;3.58;;;14.10;99.90;;;;;;5033329;28;20041;-67
2023/08/07 01:43:45;;;;;;;5.72;3.30;;;14.20;99.90;;;;;;5036389;28;20041;-68
2023/08/07 01:46:11;;;;;;;8.73;3.78;;;14.20;99.90;;;;;;5041852;28;20057;-68
2023/08/07 01:48:36;;;;;;;6.35;3.70;;;14.20;99.90;;;;;;5029777;28;20362;-68
2023/08/07 01:51:02;;;;;;;6.57;3.55;;;14.20;99.90;;;;;;5032179;28;20429;-67
2023/08/07 01:53:28;;;;;;;6.63;3.42;;;14.20;99.90;;;;;;5040960;28;20041;-67
2023/08/07 01:55:53;;;;;;;4.80;3.22;;;14.20;99.90;;;;;;5028240;28;20060;-68
2023/08/07 01:58:19;;;;;;;8.50;3.63;;;14.20;99.90;;;;;;5037990;28;20045;-68
2023/08/07 02:00:45;;;;;;;4.07;2.90;;;14.20;99.90;;;;;;5034680;28;20040;-68
2023/08/07 02:03:10;;;;;;;6.75;3.10;;;14.10;99.90;;;;;;5039308;28;20041;-67
2023/08/07 02:05:36;;;;;;;7.38;3.45;;;14.10;99.90;;;;;;5040426;28;20088;-68
2023/08/07 02:08:01;;;;;;;7.70;3.10;;;14.20;99.90;;;;;;5039135;28;20117;-67
2023/08/07 02:10:28;;;;;;;8.30;3.90;;;14.20;99.90;;;;;;5036564;28;20049;-68
2023/08/07 02:12:53;;;;;;;6.53;3.08;;;14.20;99.90;;;;;;5031591;28;20350;-67
2023/08/07 02:15:19;;;;;;;4.13;2.65;;;14.20;99.90;;;;;;5033269;28;20043;-68
2023/08/07 02:17:44;;;;;;;5.22;2.90;;;14.20;99.90;;;;;;5012857;28;20400;-67
2023/08/07 02:20:11;;;;;;;5.28;3.55;;;14.20;99.90;;;;;;5032106;28;20041;-67
2023/08/07 02:22:36;;;;;;;6.22;2.60;;;14.20;99.90;;;;;;5031114;28;20067;-67
2023/08/07 02:25:02;;;;;;;4.38;2.78;;;14.30;99.90;;;;;;5028428;28;20448;-67
2023/08/07 02:27:28;;;;;;;9.48;2.83;;;14.30;99.90;;;;;;5017779;28;20033;-68
2023/08/07 02:29:54;;;;;;;10.43;2.88;;;14.30;99.90;;;;;;5038627;28;20042;-67
2023/08/07 02:32:19;;;;;;;11.70;2.53;;;14.30;99.90;;;;;;5045771;28;20450;-67
2023/08/07 02:34:45;;;;;;;9.65;2.70;;;14.30;99.90;;;;;;5053947;28;20056;-67
2023/08/07 02:37:11;;;;;;;7.80;3.05;;;14.30;99.90;;;;;;5035973;28;20072;-68
2023/08/07 02:39:37;;;;;;;6.60;2.35;;;14.30;99.90;;;;;;5031450;28;20149;-68
2023/08/07 02:42:03;;;;;;;9.57;2.42;;;14.20;99.90;;;;;;5027987;28;20587;-68
2023/08/07 02:44:28;;;;;;;7.32;2.45;;;14.30;99.90;;;;;;5029359;28;20084;-68
2023/08/07 02:46:54;;;;;;;8.07;2.38;;;14.20;99.90;;;;;;5028501;28;20037;-67
2023/08/07 02:49:20;;;;;;;4.55;2.42;;;14.20;99.90;;;;;;5036832;28;20053;-68
2023/08/07 02:51:45;;;;;;;8.05;2.55;;;14.30;99.90;;;;;;5029432;28;20397;-68
2023/08/07 02:54:11;;;;;;;5.38;2.40;;;14.30;99.90;;;;;;5028869;28;20059;-68
2023/08/07 02:56:36;;;;;;;8.95;2.35;;;14.20;99.90;;;;;;5028592;28;20041;-67
2023/08/07 02:59:02;;;;;;;12.05;2.67;;;14.20;99.90;;;;;;5050176;28;20392;-69
2023/08/07 03:01:28;;;;;;;9.63;2.45;;;14.20;99.90;;;;;;5041759;28;20060;-69
2023/08/07 03:03:54;;;;;;;6.55;2.15;;;14.20;99.90;;;;;;5028119;28;20051;-68
2023/08/07 03:06:19;;;;;;;6.45;1.83;;;14.20;99.90;;;;;;5033688;28;20037;-68
2023/08/07 03:08:45;;;;;;;6.07;1.98;;;14.20;99.90;;;;;;5027377;28;20437;-69
2023/08/07 03:11:10;;;;;;;9.02;2.00;;;14.20;99.90;;;;;;5027259;28;20049;-69
2023/08/07 03:13:36;;;;;;;9.23;2.17;;;14.10;99.90;;;;;;5029427;28;20095;-68
2023/08/07 03:16:06;;;;;;;9.07;2.15;;;14.10;99.90;;;;;;5029558;28;20457;-68
2023/08/07 03:18:32;;;;;;;5.47;2.42;;;14.10;99.90;;;;;;5027979;28;20120;-68
2023/08/07 03:20:58;;;;;;;6.13;2.20;;;14.00;99.90;;;;;;5044540;28;20127;-68
2023/08/07 03:23:25;;;;;;;10.43;2.30;;;14.00;99.90;;;;;;5034273;28;20041;-67
2023/08/07 03:26:01;;;;;;;6.40;1.80;;;14.00;99.90;;;;;;5027989;28;20069;-69
2023/08/07 03:28:26;;;;;;;6.78;1.95;;;14.00;99.90;;;;;;5046074;28;21143;-68
2023/08/07 03:30:52;;;;;;;8.63;2.22;;;14.00;99.90;;;;;;5045259;28;20088;-67
2023/08/07 03:33:17;;;;;;;7.07;1.83;;;14.00;99.90;;;;;;5045759;28;20068;-67
2023/08/07 03:35:43;;;;;;;6.53;2.33;;;13.80;99.90;;;;;;5012243;28;20060;-68
2023/08/07 03:38:08;;;;;;;11.27;2.45;;;13.80;99.90;;;;;;5038069;28;20041;-68
2023/08/07 03:40:34;;;;;;;10.63;2.53;;;13.70;99.90;;;;;;5027051;28;20034;-67
2023/08/07 03:42:59;;;;;;;10.02;2.75;;;13.70;99.90;;;;;;5042749;28;20120;-69
2023/08/07 03:45:25;;;;;;;7.43;2.50;;;13.70;99.90;;;;;;5027783;28;20398;-68
2023/08/07 03:47:50;;;;;;;14.98;3.13;;;13.60;99.90;;;;;;5029115;28;20065;-69
2023/08/07 03:50:16;;;;;;;11.65;2.78;;;13.50;99.90;;;;;;5031149;28;20033;-69
2023/08/07 03:52:42;;;;;;;11.75;2.55;;;13.50;99.90;;;;;;5031550;28;20052;-70
2023/08/07 03:55:07;;;;;;;14.10;2.90;;;13.50;99.90;;;;;;5033245;28;20094;-69
2023/08/07 03:57:33;;;;;;;10.90;2.50;;;13.60;99.90;;;;;;5018795;28;20119;-70
2023/08/07 03:59:59;;;;;;;10.43;2.85;;;13.40;99.90;;;;;;5041108;28;20037;-69
2023/08/07 04:02:25;;;;;;;11.10;2.70;;;13.50;99.90;;;;;;5044367;28;20495;-69
2023/08/07 04:04:50;;;;;;;11.02;2.55;;;13.50;99.90;;;;;;5042443;28;20038;-70
2023/08/07 04:07:16;;;;;;;10.48;2.92;;;13.40;99.90;;;;;;5039658;28;20033;-70
2023/08/07 04:09:41;;;;;;;7.43;2.55;;;13.50;99.90;;;;;;5040052;28;20037;-68
2023/08/07 04:12:07;;;;;;;14.57;2.67;;;13.50;99.90;;;;;;5024487;28;20036;-69
2023/08/07 04:14:33;;;;;;;8.50;2.53;;;13.40;99.90;;;;;;5044446;28;20477;-69
2023/08/07 04:17:00;;;;;;;11.48;2.88;;;13.40;99.90;;;;;;5026819;28;20087;-69
2023/08/07 04:19:26;;;;;;;10.43;2.83;;;13.40;99.90;;;;;;5026529;28;20045;-70
2023/08/07 04:21:51;;;;;;;8.73;2.65;;;13.50;99.90;;;;;;5026214;28;20034;-69
2023/08/07 04:24:17;;;;;;;9.35;2.83;;;13.50;99.90;;;;;;5029846;28;20033;-69
2023/08/07 04:26:42;;;;;;;10.90;2.30;;;13.40;99.90;;;;;;5041707;28;20036;-69
2023/08/07 04:29:08;;;;;;;12.48;3.33;;;13.50;99.90;;;;;;5032258;28;20041;-71
2023/08/07 04:31:34;;;;;;;9.68;2.45;;;13.60;99.90;;;;;;5039829;28;20512;-71
2023/08/07 04:34:00;;;;;;;11.32;2.83;;;13.40;99.90;;;;;;5035775;28;20495;-70
2023/08/07 04:36:25;;;;;;;8.98;2.67;;;13.70;99.90;;;;;;5039439;28;20461;-71
2023/08/07 04:38:51;;;;;;;6.05;2.75;;;13.60;99.90;;;;;;5028305;28;20052;-71
2023/08/07 04:41:17;;;;;;;10.70;2.85;;;13.70;99.90;;;;;;5013146;28;20057;-71
2023/08/07 04:43:42;;;;;;;5.65;2.80;;;13.70;99.90;;;;;;5034487;28;20389;-71
2023/08/07 04:46:09;;;;;;;19.88;3.10;;;13.90;99.90;;;;;;5048280;28;20413;-71
2023/08/07 04:48:35;;;;;;;6.00;2.75;;;13.70;99.90;;;;;;5033684;28;20041;-72
2023/08/07 04:51:01;;;;;;;6.57;2.72;;;13.70;99.90;;;;;;5042005;28;20502;-73
2023/08/07 04:53:27;;;;;;;8.85;2.78;;;13.80;99.90;;;;;;5018547;28;20045;-71
2023/08/07 04:55:52;;;;;;;7.85;2.97;;;13.80;99.90;;;;;;5031970;28;20068;-71
2023/08/07 04:58:18;;;;;;;10.93;3.25;;;13.60;99.90;;;;;;5017273;28;20126;-71
2023/08/07 05:00:43;;;;;;;4.57;2.53;;;14.20;99.90;;;;;;5052002;28;20045;-72
2023/08/07 05:03:09;;;;;;;9.13;2.92;;;14.10;99.90;;;;;;5040856;28;20025;-72
2023/08/07 05:05:35;;;;;;;12.80;3.50;;;14.20;99.90;;;;;;5047354;28;20033;-72
2023/08/07 05:08:00;;;;;;;9.65;2.83;;;13.90;99.90;;;;;;5025788;28;20048;-72
2023/08/07 05:10:26;;;;;;;7.90;2.95;;;13.90;99.90;;;;;;5034430;28;20808;-72
2023/08/07 05:12:55;;;;;;;8.88;3.13;;;14.00;99.90;;;;;;5034447;28;20480;-72
2023/08/07 05:15:22;;;;;;;9.18;3.38;;;13.60;99.90;;;;;;5046295;28;20150;-72
2023/08/07 05:17:48;;;;;;;9.48;3.13;;;14.10;99.90;;;;;;5040106;28;20080;-73
2023/08/07 05:20:13;;;;;;;9.85;3.05;;;13.50;99.90;;;;;;5048013;28;20073;-73
2023/08/07 05:22:39;;;;;;;7.93;3.15;;;13.80;99.90;;;;;;5035285;28;20048;-72
2023/08/07 05:25:05;;;;;;;16.35;3.72;;;14.00;99.90;;;;;;5056106;28;20038;-71
2023/08/07 05:27:30;;;;;;;13.23;3.25;;;13.90;99.90;;;;;;5048878;28;20646;-75
2023/08/07 05:29:56;;;;;;;13.43;3.47;;;13.70;99.90;;;;;;5040730;28;20128;-74
2023/08/07 05:32:21;;;;;;;17.88;4.03;;;14.00;99.90;;;;;;5033343;28;20398;-73
2023/08/07 05:34:47;;;;;;;17.13;3.80;;;13.90;99.90;;;;;;5027835;28;20137;-72
2023/08/07 05:37:13;;;;;;;9.55;3.33;;;14.10;99.90;;;;;;5049786;28;20152;-74
2023/08/07 05:39:38;;;;;;;11.35;3.15;;;14.50;99.90;;;;;;5043300;28;20822;-73
2023/08/07 05:42:04;;;;;;;10.95;3.33;;;14.20;99.90;;;;;;5025528;28;20417;-73
2023/08/07 05:44:30;;;;;;;14.57;3.67;;;14.10;99.90;;;;;;5016726;28;20377;-73
2023/08/07 05:46:56;;;;;;;10.00;3.47;;;14.70;99.90;;;;;;5035802;28;20447;-73
2023/08/07 05:49:21;;;;;;;15.30;3.63;;;14.40;99.90;;;;;;5020015;28;20033;-72
2023/08/07 05:51:47;;;;;;;12.02;3.53;;;14.20;99.90;;;;;;5034756;28;20075;-74
2023/08/07 05:54:12;;;;;;;11.95;3.38;;;14.30;99.90;;;;;;5055764;28;20033;-73
2023/08/07 05:56:38;;;;;;;14.10;3.67;;;14.80;99.90;;;;;;5035991;28;22266;-73
2023/08/07 05:59:04;;;;;;;12.13;3.97;;;14.60;99.90;;;;;;5037560;28;20068;-74
2023/08/07 06:01:31;;;;;;;12.68;3.95;;;14.90;99.90;;;;;;5014650;28;20049;-73
2023/08/07 06:03:57;;;;;;;11.27;3.88;;;14.70;99.90;;;;;;5041394;28;20051;-73
2023/08/07 06:06:23;;;;;;;13.48;4.00;;;14.60;99.90;;;;;;5034210;28;20055;-74
2023/08/07 06:08:48;;;;;;;14.10;4.15;;;14.30;99.90;;;;;;5046780;28;20042;-72
2023/08/07 06:11:14;;;;;;;9.45;4.18;;;14.70;99.90;;;;;;5027296;28;20370;-73
2023/08/07 06:13:40;;;;;;;15.60;3.60;;;14.70;99.90;;;;;;5013452;28;20064;-72
2023/08/07 06:16:06;;;;;;;16.65;4.10;;;15.10;99.90;;;;;;5033506;28;20136;-73
2023/08/07 06:18:32;;;;;;;15.25;3.83;;;15.30;99.90;;;;;;5036147;28;20053;-72
2023/08/07 06:20:57;;;;;;;14.52;4.07;;;15.80;99.90;;;;;;5041421;28;20454;-73
2023/08/07 06:23:23;;;;;;;14.07;4.00;;;15.30;99.90;;;;;;5018014;28;20035;-73
2023/08/07 06:25:49;;;;;;;17.95;3.67;;;15.60;99.90;;;;;;5029346;28;20112;-73
2023/08/07 06:28:14;;;;;;;14.07;3.58;;;15.80;99.90;;;;;;5037277;28;20037;-73
2023/08/07 06:30:40;;;;;;;12.15;3.10;;;15.80;99.90;;;;;;5046114;28;21025;-72
2023/08/07 06:33:05;;;;;;;10.50;3.35;;;15.90;99.90;;;;;;5027060;28;20473;-73
2023/08/07 06:35:31;;;;;;;13.35;3.53;;;15.80;99.90;;;;;;5029732;28;20414;-73
2023/08/07 06:37:56;;;;;;;9.30;3.08;;;15.90;99.90;;;;;;5015449;28;20621;-73
2023/08/07 06:40:22;;;;;;;10.32;3.25;;;15.80;99.90;;;;;;5009673;28;20041;-73
2023/08/07 06:42:47;;;;;;;11.23;2.60;;;15.40;99.90;;;;;;5033944;28;20377;-73
2023/08/07 06:45:13;;;;;;;10.95;2.78;;;15.60;99.90;;;;;;5028313;28;20090;-73
2023/08/07 06:47:38;;;;;;;11.20;2.97;;;15.40;99.90;;;;;;5052323;28;20140;-73
2023/08/07 06:50:05;;;;;;;9.73;3.03;;;15.10;99.90;;;;;;5038214;28;20104;-73
2023/08/07 06:52:30;;;;;;;10.55;2.70;;;15.30;99.90;;;;;;5027366;28;20083;-73
2023/08/07 06:54:56;;;;;;;11.65;3.13;;;15.40;99.90;;;;;;5040222;28;20053;-73
2023/08/07 06:57:22;;;;;;;13.55;2.88;;;15.10;99.90;;;;;;5024828;28;20047;-74
2023/08/07 06:59:47;;;;;;;11.60;2.92;;;14.90;99.90;;;;;;5027838;28;20094;-74
2023/08/07 07:02:13;;;;;;;9.50;2.95;;;15.00;99.90;;;;;;5018987;28;20045;-74
2023/08/07 07:04:38;;;;;;;9.18;2.78;;;15.20;99.90;;;;;;5047018;28;20036;-75
2023/08/07 07:07:04;;;;;;;9.10;2.50;;;14.90;99.90;;;;;;5032541;28;20036;-74
2023/08/07 07:09:30;;;;;;;9.43;2.45;;;14.80;99.90;;;;;;5051049;28;20044;-73
2023/08/07 07:11:56;;;;;;;13.40;3.10;;;14.90;99.90;;;;;;5041979;28;20689;-74
2023/08/07 07:14:23;;;;;;;12.25;2.97;;;15.40;99.90;;;;;;5037617;28;20045;-73
2023/08/07 07:16:49;;;;;;;11.55;2.90;;;14.90;99.90;;;;;;5036222;28;20040;-73
2023/08/07 07:19:14;;;;;;;9.50;2.60;;;15.00;99.90;;;;;;5033938;28;20037;-74
2023/08/07 07:21:41;;;;;;;6.10;2.35;;;14.70;99.90;;;;;;5036478;28;20516;-73
2023/08/07 07:24:06;;;;;;;9.07;2.83;;;15.00;99.90;;;;;;5028411;28;20041;-74
2023/08/07 07:26:32;;;;;;;11.90;3.13;;;14.70;99.90;;;;;;5044657;28;20045;-74
2023/08/07 07:28:58;;;;;;;11.98;3.47;;;15.40;99.90;;;;;;5029538;28;20030;-74
2023/08/07 07:31:23;;;;;;;11.13;2.63;;;15.30;99.90;;;;;;5028886;28;20142;-75
2023/08/07 07:33:49;;;;;;;13.55;2.70;;;15.90;99.90;;;;;;5035346;28;20311;-75
2023/08/07 07:36:19;;;;;;;13.18;2.70;;;15.60;99.90;;;;;;5044516;28;20528;-73
2023/08/07 07:38:48;;;;;;;12.70;2.83;;;15.60;99.90;;;;;;5033850;28;20037;-75
2023/08/07 07:41:15;;;;;;;11.00;2.40;;;15.80;99.90;;;;;;5009214;28;20115;-76
2023/08/07 07:43:41;;;;;;;11.38;2.42;;;15.60;99.90;;;;;;5030073;28;20409;-76
2023/08/07 07:46:06;;;;;;;10.93;2.30;;;15.90;99.90;;;;;;5029908;28;20524;-77
2023/08/07 07:48:32;;;;;;;8.02;1.92;;;15.70;99.90;;;;;;5057114;28;20125;-76
2023/08/07 07:50:59;;;;;;;7.18;2.03;;;15.10;99.90;;;;;;5040927;28;20058;-77
2023/08/07 07:53:25;;;;;;;5.45;1.73;;;15.30;99.90;;;;;;5033311;28;20118;-77
2023/08/07 07:55:50;;;;;;;12.27;2.50;;;15.10;99.90;;;;;;5029819;28;20105;-75
2023/08/07 07:58:16;;;;;;;7.20;1.73;;;15.30;99.90;;;;;;5032022;28;20064;-76
2023/08/07 08:00:42;;;;;;;7.15;1.85;;;15.10;99.90;;;;;;5048375;28;20409;-76
2023/08/07 08:03:08;;;;;;;6.63;1.90;;;15.10;99.90;;;;;;5053361;28;20144;-76
2023/08/07 08:05:34;;;;;;;8.00;1.95;;;14.80;99.90;;;;;;5043418;28;20037;-74
2023/08/07 08:08:01;;;;;;;7.55;2.03;;;14.70;99.90;;;;;;5043712;28;20037;-76
2023/08/07 08:10:27;;;;;;;8.48;2.15;;;14.80;99.90;;;;;;5035953;28;20045;-76
2023/08/07 08:12:55;;;;;;;6.55;2.90;;;14.70;99.90;;;;;;5046677;28;20036;-76
2023/08/07 08:15:21;;;;;;;7.65;2.38;;;14.90;99.90;;;;;;5029086;28;20593;-76
2023/08/07 08:17:47;;;;;;;8.15;2.30;;;14.90;99.90;;;;;;5051240;28;20065;-80
2023/08/07 08:20:17;;;;;;;8.98;2.50;;;15.00;99.90;;;;;;5040707;28;20037;-78
2023/08/07 08:22:46;;;;;;;7.90;3.08;;;15.10;99.90;;;;;;5048199;28;20139;-81
2023/08/07 08:25:13;;;;;;;6.85;2.13;;;15.60;99.90;;;;;;5030643;28;20399;-75
2023/08/07 08:27:39;;;;;;;9.38;2.65;;;16.00;99.90;;;;;;5039442;28;20030;-76
2023/08/07 08:30:06;;;;;;;5.75;2.17;;;16.20;99.90;;;;;;5033509;28;20095;-75
2023/08/07 08:32:31;;;;;;;7.43;1.80;;;16.10;99.90;;;;;;5049043;28;20060;-77
2023/08/07 08:34:57;;;;;;;10.75;2.20;;;15.90;99.90;;;;;;5045190;28;20048;-74
2023/08/07 08:37:23;;;;;;;4.90;2.03;;;15.70;99.90;;;;;;5034677;28;20059;-75
2023/08/07 08:39:49;;;;;;;5.53;1.98;;;15.60;99.90;;;;;;5036291;28;20121;-76
2023/08/07 08:42:17;;;;;;;5.88;1.83;;;15.50;99.90;;;;;;5035768;28;20124;-72
2023/08/07 08:44:51;;;;;;;7.05;2.05;;;15.40;99.90;;;;;;5050889;28;20091;-77
2023/08/07 08:47:17;;;;;;;8.15;2.80;;;15.40;99.90;;;;;;5038147;28;20039;-77
2023/08/07 08:50:00;;;;;;;6.88;2.13;;;15.40;99.90;;;;;;5043949;28;20477;-72
2023/08/07 08:52:28;;;;;;;7.18;2.58;;;15.50;99.90;;;;;;5049723;28;20045;-76
2023/08/07 08:54:54;;;;;;;8.95;2.42;;;15.50;99.90;;;;;;5043312;28;20484;-77
2023/08/07 08:57:20;;;;;;;10.25;2.33;;;15.60;99.90;;;;;;5021848;28;20049;-75
2023/08/07 08:59:46;;;;;;;8.98;2.08;;;15.60;99.90;;;;;;5034051;28;20301;-74
2023/08/07 09:02:12;;;;;;;5.05;2.22;;;15.80;99.90;;;;;;5040182;28;20044;-71
2023/08/07 09:04:38;;;;;;;7.43;2.33;;;15.90;99.90;;;;;;5035927;28;20037;-77
2023/08/07 09:07:04;;;;;;;7.75;2.22;;;16.10;99.90;;;;;;5032288;28;20128;-74
2023/08/07 09:09:30;;;;;;;9.02;2.13;;;16.70;99.90;;;;;;5045093;28;20041;-75
2023/08/07 09:11:58;;;;;;;10.20;2.58;;;17.10;99.90;;;;;;5013438;28;20140;-75
2023/08/07 09:14:30;;;;;;;5.78;2.20;;;17.70;99.90;;;;;;5049226;28;20033;-73
2023/08/07 09:16:59;;;;;;;5.88;1.98;;;18.40;99.90;;;;;;5035275;28;20041;-73
2023/08/07 09:19:25;;;;;;;8.65;2.88;;;19.20;99.90;;;;;;5028639;28;20404;-72
2023/08/07 09:21:50;;;;;;;6.22;2.10;;;20.20;99.90;;;;;;5024733;28;20481;-73
2023/08/07 09:24:18;;;;;;;7.95;2.17;;;20.90;99.90;;;;;;5040248;28;20116;-74
2023/08/07 09:26:44;;;;;;;7.80;2.10;;;21.20;99.90;;;;;;5043371;28;20101;-75
2023/08/07 09:29:09;;;;;;;11.25;2.40;;;21.70;99.20;;;;;;5046677;28;20048;-73
2023/08/07 09:31:37;;;;;;;10.45;2.78;;;21.80;97.20;;;;;;5032088;28;20095;-71
2023/08/07 09:34:03;;;;;;;5.13;1.83;;;21.80;93.70;;;;;;5032570;28;20110;-71
2023/08/07 09:36:31;;;;;;;5.22;2.13;;;21.30;93.30;;;;;;5035927;28;20412;-70
2023/08/07 09:39:01;;;;;;;7.55;1.83;;;21.20;90.10;;;;;;5039671;28;20077;-73
2023/08/07 09:41:28;;;;;;;5.18;2.00;;;21.50;86.90;;;;;;5030947;28;20127;-73
2023/08/07 09:43:54;;;;;;;7.20;1.65;;;21.60;86.90;;;;;;5047276;28;20033;-72
2023/08/07 09:46:20;;;;;;;6.22;1.75;;;21.50;84.50;;;;;;5033665;28;20116;-72
2023/08/07 09:48:45;;;;;;;4.25;1.77;;;21.20;82.60;;;;;;5039969;28;20449;-71
2023/08/07 09:51:11;;;;;;;6.63;1.95;;;20.70;84.10;;;;;;5041676;28;20477;-74
2023/08/07 09:53:37;;;;;;;8.05;1.92;;;20.40;84.70;;;;;;5029855;28;20071;-72
2023/08/07 09:56:03;;;;;;;6.43;1.60;;;20.20;83.70;;;;;;5033318;28;20136;-73
2023/08/07 09:58:29;;;;;;;6.63;1.48;;;20.20;83.50;;;;;;5031121;28;20120;-71
2023/08/07 10:00:59;;;;;;;7.07;1.90;;;20.50;78.90;;;;;;5022099;28;20041;-71
2023/08/07 10:03:25;;;;;;;5.90;2.10;;;20.50;79.70;;;;;;5048481;28;20052;-70
2023/08/07 10:05:51;;;;;;;6.15;1.65;;;20.20;78.80;;;;;;5040520;28;20056;-70
2023/08/07 10:08:17;;;;;;;4.05;1.67;;;19.90;78.30;;;;;;5034558;28;20533;-70
2023/08/07 10:10:44;;;;;;;6.07;1.75;;;19.70;79.80;;;;;;5037130;28;20934;-70
2023/08/07 10:13:13;;;;;;;7.60;2.50;;;19.70;79.10;;;;;;5043445;28;20041;-72
2023/08/07 10:15:41;;;;;;;4.68;2.15;;;20.30;76.90;;;;;;5023755;28;20045;-72
2023/08/07 10:18:07;;;;;;;8.68;2.10;;;21.10;74.10;;;;;;5030246;28;20371;-69
2023/08/07 10:20:34;;;;;;;5.75;2.08;;;22.00;71.80;;;;;;5047181;28;20056;-71
2023/08/07 10:23:07;;;;;;;3.97;2.13;;;23.10;70.20;;;;;;5029853;28;20083;-71
2023/08/07 10:25:41;;;;;;;7.50;1.70;;;22.90;66.70;;;;;;5025772;28;20064;-70
2023/08/07 10:28:10;;;;;;;8.18;1.75;;;21.90;67.30;;;;;;5035373;28;20109;-72
2023/08/07 10:30:37;;;;;;;8.52;2.60;;;21.00;70.20;;;;;;5030001;28;20543;-73
2023/08/07 10:33:04;;;;;;;5.97;1.63;;;20.30;72.70;;;;;;5028878;28;20124;-73
2023/08/07 10:35:31;;;;;;;8.23;1.75;;;19.80;71.50;;;;;;5054635;28;20049;-71
2023/08/07 10:38:10;;;;;;;8.07;2.22;;;19.50;73.70;;;;;;5042580;28;20076;-72
2023/08/07 10:41:01;;;;;;;6.07;2.33;;;19.30;71.50;;;;;;5039739;28;20081;-73
2023/08/07 10:43:27;;;;;;;6.03;1.98;;;19.30;69.30;;;;;;5035828;28;20033;-68
2023/08/07 10:45:53;;;;;;;7.10;2.00;;;19.20;74.30;;;;;;5047526;28;20119;-69
2023/08/07 10:48:21;;;;;;;5.57;1.77;;;19.10;74.50;;;;;;5040221;28;20439;-71
2023/08/07 10:51:03;;;;;;;6.45;2.10;;;19.10;75.00;;;;;;5056335;28;20095;-71
2023/08/07 10:53:28;;;;;;;6.18;1.70;;;19.20;76.90;;;;;;5042270;28;20151;-72
2023/08/07 10:56:00;;;;;;;6.13;1.98;;;19.20;75.60;;;;;;5050303;28;20140;-69
2023/08/07 10:58:36;;;;;;;7.88;1.60;;;19.20;75.90;;;;;;5041726;28;20045;-69
2023/08/07 11:01:20;;;;;;;4.68;1.80;;;18.90;74.20;;;;;;5028206;28;20129;-70
2023/08/07 11:04:13;;;;;;;4.72;1.98;;;18.60;70.40;;;;;;5032764;28;20041;-71
2023/08/07 11:06:41;;;;;;;5.97;2.00;;;18.60;76.40;;;;;;5044455;28;20098;-70
2023/08/07 11:09:08;;;;;;;8.07;1.88;;;18.60;75.70;;;;;;5020681;28;20048;-71
2023/08/07 11:11:39;;;;;;;8.02;1.88;;;18.50;75.40;;;;;;5010459;28;20045;-68
2023/08/07 11:14:06;;;;;;;6.55;1.70;;;18.80;75.20;;;;;;5028941;28;20048;-72
2023/08/07 11:16:33;;;;;;;5.15;1.55;;;19.10;73.70;;;;;;5031902;28;20052;-70
2023/08/07 11:18:59;;;;;;;6.85;2.10;;;19.40;74.40;;;;;;5045473;28;20041;-72
2023/08/07 11:21:25;;;;;;;4.75;1.50;;;19.40;73.80;;;;;;5034050;28;20163;-70
2023/08/07 11:23:52;;;;;;;6.40;1.65;;;19.50;73.40;;;;;;5042925;28;20143;-71
2023/08/07 11:26:21;;;;;;;5.97;1.92;;;19.40;73.40;;;;;;5027571;28;20110;-70
2023/08/07 11:28:47;;;;;;;9.93;1.50;;;19.20;73.00;;;;;;5040979;28;20062;-71
2023/08/07 11:31:13;;;;;;;7.60;1.90;;;19.30;73.00;;;;;;5033602;28;20132;-68
2023/08/07 11:33:40;;;;;;;6.28;1.23;;;19.50;72.90;;;;;;5047106;28;20041;-69
2023/08/07 11:36:15;;;;;;;6.00;1.35;;;19.60;72.20;;;;;;5032162;28;20041;-70
2023/08/07 11:38:45;;;;;;;4.18;1.42;;;19.40;71.90;;;;;;5039259;28;20041;-70
2023/08/07 11:41:12;;;;;;;4.85;1.35;;;19.30;71.60;;;;;;5037890;28;20534;-70
2023/08/07 11:43:39;;;;;;;3.47;1.38;;;19.20;71.80;;;;;;5015627;28;20033;-69
2023/08/07 11:46:06;;;;;;;6.10;1.45;;;19.30;71.30;;;;;;5043098;28;20041;-71
2023/08/07 11:48:34;;;;;;;6.38;1.30;;;19.40;70.00;;;;;;5024662;28;20127;-67
2023/08/07 11:51:01;;;;;;;3.88;1.42;;;19.50;72.00;;;;;;5034147;28;20079;-70
2023/08/07 11:53:28;;;;;;;4.93;1.27;;;19.40;71.00;;;;;;5037661;28;20098;-72
2023/08/07 11:55:58;;;;;;;6.90;1.60;;;19.50;71.50;;;;;;5035455;28;20041;-70
2023/08/07 11:58:25;;;;;;;5.25;1.42;;;19.50;71.60;;;;;;5029932;28;20085;-69
2023/08/07 12:00:52;;;;;;;4.20;1.10;;;19.30;71.00;;;;;;5029306;28;20046;-68
2023/08/07 12:03:29;;;;;;;7.35;1.50;;;19.30;70.40;;;;;;5042986;28;20416;-69
2023/08/07 12:06:01;;;;;;;4.50;1.45;;;19.40;71.30;;;;;;5035060;28;20082;-69
2023/08/07 12:08:38;;;;;;;2.92;1.20;;;19.60;70.20;;;;;;5035999;28;20041;-69
2023/08/07 12:11:05;;;;;;;6.47;2.15;;;19.90;69.30;;;;;;5050403;28;20076;-71
2023/08/07 12:13:34;;;;;;;5.07;1.55;;;20.10;66.80;;;;;;5032359;28;20089;-71
2023/08/07 12:16:01;;;;;;;4.45;1.77;;;20.10;68.10;;;;;;5037210;28;20068;-71
2023/08/07 12:18:27;;;;;;;6.47;1.45;;;20.20;68.10;;;;;;5030479;28;20137;-72
2023/08/07 12:21:00;;;;;;;3.60;1.08;;;20.20;67.60;;;;;;5035961;28;20059;-70
2023/08/07 12:23:26;;;;;;;5.68;1.63;;;20.10;67.40;;;;;;5027079;28;20064;-71
2023/08/07 12:25:52;;;;;;;8.15;1.33;;;20.00;67.80;;;;;;5039252;28;20064;-70
2023/08/07 12:28:18;;;;;;;4.82;1.23;;;19.90;67.60;;;;;;5028837;28;20399;-70
2023/08/07 12:30:48;;;;;;;3.90;1.50;;;20.00;68.00;;;;;;5036178;28;20073;-70
2023/08/07 12:33:13;;;;;;;6.38;1.70;;;19.80;67.50;;;;;;5051175;28;20544;-71
2023/08/07 12:35:40;;;;;;;4.32;1.40;;;19.60;68.10;;;;;;5039227;28;20037;-69
2023/08/07 12:38:06;;;;;;;9.43;2.10;;;19.40;68.90;;;;;;5027181;28;20046;-68
2023/08/07 12:40:33;;;;;;;4.07;1.60;;;19.20;69.50;;;;;;5029706;28;20048;-67
2023/08/07 12:42:59;;;;;;;4.15;1.90;;;19.00;69.70;;;;;;5037371;28;20053;-69